createdAt,value
2019-03-19T00:04:10.794Z,84.94
2019-03-19T00:09:16.393Z,85.28
2019-03-19T00:14:21.622Z,85.32
2019-03-19T00:19:27.031Z,84.75
2019-03-19T00:24:32.472Z,83.46
2019-03-19T00:29:37.660Z,83.95
2019-03-19T00:34:43.071Z,84.46
2019-03-19T00:39:48.273Z,84.10
2019-03-19T00:44:53.505Z,84.84
2019-03-19T00:49:59.671Z,83.68
2019-03-19T00:55:05.213Z,82.79
2019-03-19T01:00:10.707Z,82.70
2019-03-19T01:05:16.054Z,83.04
2019-03-19T01:10:21.260Z,84.31
2019-03-19T01:15:27.421Z,84.71
2019-03-19T01:20:32.627Z,84.95
2019-03-19T01:25:37.808Z,85.44
2019-03-19T01:30:43.087Z,85.49
2019-03-19T01:35:48.327Z,84.92
2019-03-19T01:40:53.577Z,84.01
2019-03-19T01:45:58.792Z,83.69
2019-03-19T01:51:03.972Z,83.72
2019-03-19T01:56:09.229Z,84.99
2019-03-19T02:01:14.558Z,84.80
2019-03-19T02:06:19.765Z,84.65
2019-03-19T02:11:25.104Z,85.00
2019-03-19T02:16:30.309Z,85.50
2019-03-19T02:21:35.693Z,84.92
2019-03-19T02:26:41.807Z,84.04
2019-03-19T02:31:47.054Z,84.36
2019-03-19T02:36:52.287Z,84.63
2019-03-19T02:41:57.544Z,84.45
2019-03-19T02:47:02.742Z,84.43
2019-03-19T02:52:07.942Z,85.28
2019-03-19T02:57:13.126Z,85.75
2019-03-19T03:02:18.337Z,85.77
2019-03-19T03:07:24.620Z,84.93
2019-03-19T03:12:29.849Z,84.99
2019-03-19T03:17:35.073Z,85.26
2019-03-19T03:22:40.269Z,85.92
2019-03-19T03:27:45.645Z,86.23
2019-03-19T03:32:51.001Z,85.49
2019-03-19T03:37:57.338Z,85.11
2019-03-19T03:43:02.557Z,84.03
2019-03-19T03:48:07.771Z,84.55
2019-03-19T03:53:12.963Z,84.60
2019-03-19T03:58:18.308Z,84.74
2019-03-19T04:03:23.639Z,84.88
2019-03-19T04:08:28.925Z,85.93
2019-03-19T04:13:34.169Z,85.94
2019-03-19T04:18:39.369Z,85.23
2019-03-19T04:23:44.657Z,84.81
2019-03-19T04:28:52.154Z,84.98
2019-03-19T04:33:57.453Z,85.43
2019-03-19T04:39:03.262Z,84.54
2019-03-19T04:44:08.517Z,84.71
2019-03-19T04:49:13.682Z,84.98
2019-03-19T04:54:18.919Z,85.72
2019-03-19T04:59:24.136Z,85.56
2019-03-19T05:04:29.457Z,85.76
2019-03-19T05:09:34.658Z,85.64
2019-03-19T05:14:39.905Z,84.42
2019-03-19T05:19:45.224Z,84.70
2019-03-19T05:24:50.846Z,85.17
2019-03-19T05:29:56.037Z,85.59
2019-03-19T05:35:01.268Z,85.63
2019-03-19T05:40:07.054Z,84.58
2019-03-19T05:45:12.712Z,85.57
2019-03-19T05:50:19.237Z,84.98
2019-03-19T05:55:24.598Z,84.51
2019-03-19T06:00:31.559Z,84.93
2019-03-19T06:05:36.778Z,84.87
2019-03-19T06:10:42.135Z,84.76
2019-03-19T06:15:47.737Z,85.25
2019-03-19T06:20:53.380Z,84.23
2019-03-19T06:25:58.794Z,83.46
2019-03-19T06:31:04.010Z,83.38
2019-03-19T06:36:09.529Z,83.21
2019-03-19T06:41:14.801Z,82.23
2019-03-19T06:46:19.998Z,82.78
2019-03-19T06:51:25.294Z,81.87
2019-03-19T06:56:30.570Z,80.53
2019-03-19T07:01:35.888Z,80.79
2019-03-19T07:06:41.490Z,80.58
2019-03-19T07:11:47.830Z,80.29
2019-03-19T07:16:54.179Z,78.71
2019-03-19T07:21:59.427Z,78.55
2019-03-19T07:27:04.645Z,78.61
2019-03-19T07:32:10.387Z,77.88
2019-03-19T07:37:16.047Z,74.72
2019-03-19T07:42:21.269Z,74.01
2019-03-19T07:47:26.463Z,73.94
2019-03-19T07:52:31.835Z,73.39
2019-03-19T07:57:37.100Z,74.15
2019-03-19T08:02:42.307Z,74.82
2019-03-19T08:07:47.614Z,73.74
2019-03-19T08:12:52.800Z,71.03
2019-03-19T08:17:58.156Z,70.42
2019-03-19T08:23:03.398Z,70.16
2019-03-19T08:28:08.697Z,70.96
2019-03-19T08:38:19.211Z,69.51
2019-03-19T08:43:24.494Z,69.67
2019-03-19T08:48:29.689Z,68.33
2019-03-19T08:53:35.159Z,69.01
2019-03-19T08:58:40.371Z,67.71
2019-03-19T09:03:45.670Z,67.23
2019-03-19T09:08:50.985Z,65.79
2019-03-19T09:13:56.270Z,66.67
2019-03-19T09:19:01.545Z,65.25
2019-03-19T09:24:06.961Z,64.36
2019-03-19T09:29:16.852Z,61.99
2019-03-19T09:34:19.196Z,60.06
2019-03-19T09:39:24.534Z,59.89
2019-03-19T09:44:29.722Z,58.87
2019-03-19T09:49:34.994Z,57.65
2019-03-19T09:54:40.283Z,56.58
2019-03-19T09:59:45.565Z,56.97
2019-03-19T10:04:51.698Z,54.70
2019-03-19T10:09:57.417Z,56.41
2019-03-19T10:15:02.832Z,56.34
2019-03-19T10:20:10.030Z,56.90
2019-03-19T10:25:15.268Z,56.02
2019-03-19T10:30:20.540Z,53.02
2019-03-19T10:35:25.774Z,55.05
2019-03-19T10:40:30.987Z,56.21
2019-03-19T10:45:36.580Z,56.86
2019-03-19T10:50:41.802Z,53.59
2019-03-19T10:55:47.277Z,52.06
2019-03-19T11:00:52.648Z,52.58
2019-03-19T11:05:57.882Z,49.16
2019-03-19T11:11:03.708Z,46.49
2019-03-19T11:16:08.983Z,47.63
2019-03-19T11:21:14.305Z,44.70
2019-03-19T11:26:19.676Z,45.37
2019-03-19T11:31:25.233Z,46.18
2019-03-19T11:36:30.439Z,47.12
2019-03-19T11:41:35.691Z,48.57
2019-03-19T11:46:40.870Z,49.21
2019-03-19T11:51:46.079Z,44.83
2019-03-19T11:56:51.294Z,42.81
2019-03-19T12:01:56.623Z,42.11
2019-03-19T12:07:01.810Z,40.98
2019-03-19T12:12:07.088Z,39.44
2019-03-19T12:17:12.314Z,38.32
2019-03-19T12:22:17.799Z,37.18
2019-03-19T12:27:24.047Z,36.75
2019-03-19T12:32:29.249Z,37.85
2019-03-19T12:37:34.521Z,38.33
2019-03-19T12:42:39.774Z,34.74
2019-03-19T12:47:45.426Z,35.41
2019-03-19T12:52:50.698Z,34.15
2019-03-19T12:57:56.254Z,33.04
2019-03-19T13:03:01.490Z,29.48
2019-03-19T13:08:06.707Z,29.42
2019-03-19T13:13:12.167Z,28.06
2019-03-19T13:18:20.430Z,27.84
2019-03-19T13:23:26.332Z,25.66
2019-03-19T13:28:32.974Z,26.78
2019-03-19T13:33:38.224Z,25.21
2019-03-19T13:38:43.689Z,27.75
2019-03-19T13:43:48.972Z,31.22
2019-03-19T13:48:54.306Z,33.10
2019-03-19T13:53:59.649Z,34.17
2019-03-19T13:59:05.300Z,33.94
2019-03-19T14:04:11.767Z,36.44
2019-03-19T14:09:17.328Z,36.72
2019-03-19T14:14:22.615Z,38.47
2019-03-19T14:19:28.670Z,39.39
2019-03-19T14:24:33.956Z,40.31
2019-03-19T14:29:39.289Z,40.54
2019-03-19T14:34:44.559Z,41.13
2019-03-19T14:39:49.924Z,42.13
2019-03-19T14:44:55.388Z,42.03
2019-03-19T14:50:00.709Z,41.62
2019-03-19T14:55:06.427Z,42.02
2019-03-19T15:00:13.272Z,42.07
2019-03-19T15:05:18.419Z,41.66
2019-03-19T15:10:23.626Z,41.82
2019-03-19T15:15:28.853Z,42.57
2019-03-19T15:20:34.111Z,43.70
2019-03-19T15:25:39.642Z,43.25
2019-03-19T15:30:44.937Z,42.96
2019-03-19T15:35:51.136Z,44.27
2019-03-19T15:40:56.426Z,44.93
2019-03-19T15:46:01.707Z,44.02
2019-03-19T15:51:06.956Z,44.59
2019-03-19T15:56:12.182Z,44.13
2019-03-19T16:01:18.462Z,44.74
2019-03-19T16:06:23.977Z,44.67
2019-03-19T16:11:29.528Z,45.42
2019-03-19T16:16:34.811Z,44.84
2019-03-19T16:21:40.283Z,45.47
2019-03-19T16:26:45.661Z,44.99
2019-03-19T16:31:52.017Z,45.35
2019-03-19T16:36:57.241Z,46.57
2019-03-19T16:42:02.467Z,46.94
2019-03-19T16:47:08.893Z,46.78
2019-03-19T16:52:14.142Z,46.41
2019-03-19T16:57:19.359Z,48.38
2019-03-19T17:02:24.553Z,48.83
2019-03-19T17:07:29.838Z,49.51
2019-03-19T17:12:35.556Z,49.06
2019-03-19T17:17:40.796Z,49.69
2019-03-19T17:22:46.241Z,50.58
2019-03-19T17:27:51.640Z,50.42
2019-03-19T17:32:56.932Z,52.20
2019-03-19T17:38:02.306Z,52.20
2019-03-19T17:43:07.611Z,52.67
2019-03-19T17:48:16.314Z,53.02
2019-03-19T17:53:20.029Z,54.40
2019-03-19T17:58:25.643Z,55.65
2019-03-19T18:03:30.866Z,58.49
2019-03-19T18:08:36.282Z,58.61
2019-03-19T18:13:42.823Z,59.54
2019-03-19T18:18:48.036Z,60.13
2019-03-19T18:23:53.248Z,61.73
2019-03-19T18:28:58.905Z,63.06
2019-03-19T18:34:10.294Z,62.89
2019-03-19T18:39:13.134Z,62.99
2019-03-19T18:44:18.552Z,63.48
2019-03-19T18:49:24.195Z,64.67
2019-03-19T18:54:29.446Z,66.37
2019-03-19T18:59:35.026Z,65.87
2019-03-19T19:04:40.322Z,65.73
2019-03-19T19:09:45.644Z,66.46
2019-03-19T19:14:50.900Z,67.32
2019-03-19T19:19:56.125Z,68.29
2019-03-19T19:25:01.469Z,67.96
2019-03-19T19:30:09.298Z,68.52
2019-03-19T19:35:14.623Z,68.84
2019-03-19T19:40:20.114Z,69.81
2019-03-19T19:45:25.452Z,72.24
2019-03-19T19:50:30.810Z,70.21
2019-03-19T19:55:36.120Z,70.23
2019-03-19T20:00:41.582Z,70.53
2019-03-19T20:05:46.844Z,70.58
2019-03-19T20:10:52.855Z,71.15
2019-03-19T20:15:59.241Z,71.12
2019-03-19T20:21:04.652Z,71.98
2019-03-19T20:26:10.982Z,72.18
2019-03-19T20:31:16.843Z,72.30
2019-03-19T20:36:22.671Z,72.44
2019-03-19T20:41:28.227Z,72.48
2019-03-19T20:46:34.441Z,72.83
2019-03-19T20:51:39.835Z,72.97
2019-03-19T20:56:45.634Z,72.77
2019-03-19T21:01:51.014Z,74.56
2019-03-19T21:06:56.767Z,75.46
2019-03-19T21:12:02.056Z,74.06
2019-03-19T21:17:07.815Z,74.09
2019-03-19T21:22:15.905Z,73.72
2019-03-19T21:27:21.721Z,74.14
2019-03-19T21:32:27.483Z,74.46
2019-03-19T21:37:32.941Z,74.74
2019-03-19T21:42:39.391Z,74.61
2019-03-19T21:47:46.143Z,74.88
2019-03-19T21:52:52.755Z,75.28
2019-03-19T21:57:58.288Z,75.31
2019-03-19T22:03:03.990Z,76.72
2019-03-19T22:08:09.483Z,76.89
2019-03-19T22:13:14.773Z,75.85
2019-03-19T22:18:20.272Z,75.98
2019-03-19T22:23:25.555Z,76.16
2019-03-19T22:28:30.784Z,76.34
2019-03-19T22:33:36.038Z,75.89
2019-03-19T22:38:42.298Z,76.08
2019-03-19T22:43:47.615Z,77.20
2019-03-19T22:48:52.931Z,78.51
2019-03-19T22:53:58.158Z,78.75
2019-03-19T22:59:04.463Z,76.85
2019-03-19T23:04:09.658Z,76.74
2019-03-19T23:09:15.450Z,77.56
2019-03-19T23:14:21.035Z,78.18
2019-03-19T23:19:26.352Z,77.31
2019-03-19T23:24:31.714Z,78.84
2019-03-19T23:29:36.932Z,79.05
2019-03-19T23:34:42.279Z,78.04
2019-03-19T23:39:47.665Z,77.34
2019-03-19T23:44:54.051Z,77.75
2019-03-19T23:49:59.243Z,77.84
2019-03-19T23:55:04.459Z,77.67
